sensor_id;sensor_type;location;lat;lon;timestamp;temperature;humidity
69747;DHT22;57018;50.278;19.134;2022-08-21T00:00:29;21.60;98.70
69747;DHT22;57018;50.278;19.134;2022-08-21T00:02:59;21.60;98.30
69747;DHT22;57018;50.278;19.134;2022-08-21T00:05:27;21.60;98.40
69747;DHT22;57018;50.278;19.134;2022-08-21T00:07:54;21.60;98.50
69747;DHT22;57018;50.278;19.134;2022-08-21T00:10:22;21.60;98.40
69747;DHT22;57018;50.278;19.134;2022-08-21T00:12:49;21.60;98.30
69747;DHT22;57018;50.278;19.134;2022-08-21T00:15:21;21.50;98.40
69747;DHT22;57018;50.278;19.134;2022-08-21T00:17:46;21.50;98.00
69747;DHT22;57018;50.278;19.134;2022-08-21T00:20:15;21.40;98.20
69747;DHT22;57018;50.278;19.134;2022-08-21T00:22:44;21.50;98.40
69747;DHT22;57018;50.278;19.134;2022-08-21T00:25:11;21.50;98.30
69747;DHT22;57018;50.278;19.134;2022-08-21T00:27:39;21.50;98.50
69747;DHT22;57018;50.278;19.134;2022-08-21T00:30:09;21.60;98.60
69747;DHT22;57018;50.278;19.134;2022-08-21T00:32:38;21.50;98.40
69747;DHT22;57018;50.278;19.134;2022-08-21T00:35:06;21.50;99.00
69747;DHT22;57018;50.278;19.134;2022-08-21T00:37:33;21.50;99.00
69747;DHT22;57018;50.278;19.134;2022-08-21T00:39:59;21.50;99.20
69747;DHT22;57018;50.278;19.134;2022-08-21T00:42:26;21.40;99.50
69747;DHT22;57018;50.278;19.134;2022-08-21T00:44:54;21.40;99.80
69747;DHT22;57018;50.278;19.134;2022-08-21T00:47:20;21.30;99.90
69747;DHT22;57018;50.278;19.134;2022-08-21T00:49:46;21.40;99.90
69747;DHT22;57018;50.278;19.134;2022-08-21T00:52:15;21.30;99.90
69747;DHT22;57018;50.278;19.134;2022-08-21T00:54:43;21.30;99.90
69747;DHT22;57018;50.278;19.134;2022-08-21T00:57:13;21.40;99.90
69747;DHT22;57018;50.278;19.134;2022-08-21T00:59:40;21.30;99.90
69747;DHT22;57018;50.278;19.134;2022-08-21T01:02:09;21.20;99.90
69747;DHT22;57018;50.278;19.134;2022-08-21T01:04:36;21.20;99.90
69747;DHT22;57018;50.278;19.134;2022-08-21T01:07:03;21.20;99.90
69747;DHT22;57018;50.278;19.134;2022-08-21T01:09:30;21.20;99.90
69747;DHT22;57018;50.278;19.134;2022-08-21T01:11:57;21.10;99.90
69747;DHT22;57018;50.278;19.134;2022-08-21T01:14:24;21.20;99.90
69747;DHT22;57018;50.278;19.134;2022-08-21T01:16:52;21.10;99.90
69747;DHT22;57018;50.278;19.134;2022-08-21T01:19:20;21.10;99.90
69747;DHT22;57018;50.278;19.134;2022-08-21T01:21:47;21.10;99.90
69747;DHT22;57018;50.278;19.134;2022-08-21T01:24:13;21.00;99.90
69747;DHT22;57018;50.278;19.134;2022-08-21T01:26:40;21.00;99.90
69747;DHT22;57018;50.278;19.134;2022-08-21T01:31:51;20.90;99.90
69747;DHT22;57018;50.278;19.134;2022-08-21T01:34:17;21.00;99.90
69747;DHT22;57018;50.278;19.134;2022-08-21T01:36:45;21.00;99.90
69747;DHT22;57018;50.278;19.134;2022-08-21T01:39:13;20.90;99.90
69747;DHT22;57018;50.278;19.134;2022-08-21T01:41:40;21.10;99.90
69747;DHT22;57018;50.278;19.134;2022-08-21T01:44:07;21.00;99.90
69747;DHT22;57018;50.278;19.134;2022-08-21T01:46:33;21.10;99.90
69747;DHT22;57018;50.278;19.134;2022-08-21T01:48:59;21.10;99.90
69747;DHT22;57018;50.278;19.134;2022-08-21T01:51:25;21.10;99.90
69747;DHT22;57018;50.278;19.134;2022-08-21T01:53:51;21.30;99.90
69747;DHT22;57018;50.278;19.134;2022-08-21T01:56:18;21.20;99.90
69747;DHT22;57018;50.278;19.134;2022-08-21T01:58:46;21.10;99.90
69747;DHT22;57018;50.278;19.134;2022-08-21T02:01:13;21.20;99.90
69747;DHT22;57018;50.278;19.134;2022-08-21T02:03:39;21.20;99.90
69747;DHT22;57018;50.278;19.134;2022-08-21T02:06:11;21.10;99.90
69747;DHT22;57018;50.278;19.134;2022-08-21T02:08:35;21.20;99.90
69747;DHT22;57018;50.278;19.134;2022-08-21T02:11:02;21.10;99.90
69747;DHT22;57018;50.278;19.134;2022-08-21T02:13:28;21.10;99.90
69747;DHT22;57018;50.278;19.134;2022-08-21T02:15:54;21.00;99.90
69747;DHT22;57018;50.278;19.134;2022-08-21T02:18:20;21.00;99.90
69747;DHT22;57018;50.278;19.134;2022-08-21T02:20:47;21.10;99.90
69747;DHT22;57018;50.278;19.134;2022-08-21T02:23:14;21.10;99.90
69747;DHT22;57018;50.278;19.134;2022-08-21T02:25:41;21.20;99.90
69747;DHT22;57018;50.278;19.134;2022-08-21T02:28:10;21.30;99.90
69747;DHT22;57018;50.278;19.134;2022-08-21T02:30:41;21.30;99.90
69747;DHT22;57018;50.278;19.134;2022-08-21T02:33:08;21.20;99.90
69747;DHT22;57018;50.278;19.134;2022-08-21T02:35:36;21.20;99.90
69747;DHT22;57018;50.278;19.134;2022-08-21T02:38:07;21.00;99.90
69747;DHT22;57018;50.278;19.134;2022-08-21T02:40:36;21.10;99.90
69747;DHT22;57018;50.278;19.134;2022-08-21T02:43:04;21.30;99.90
69747;DHT22;57018;50.278;19.134;2022-08-21T02:45:31;21.20;99.90
69747;DHT22;57018;50.278;19.134;2022-08-21T02:48:01;21.20;99.90
69747;DHT22;57018;50.278;19.134;2022-08-21T02:50:30;21.20;99.90
69747;DHT22;57018;50.278;19.134;2022-08-21T02:52:56;21.20;99.90
69747;DHT22;57018;50.278;19.134;2022-08-21T02:55:26;21.20;99.90
69747;DHT22;57018;50.278;19.134;2022-08-21T02:57:53;21.20;99.90
69747;DHT22;57018;50.278;19.134;2022-08-21T03:00:22;21.30;99.90
69747;DHT22;57018;50.278;19.134;2022-08-21T03:02:49;21.30;99.90
69747;DHT22;57018;50.278;19.134;2022-08-21T03:05:16;21.40;99.90
69747;DHT22;57018;50.278;19.134;2022-08-21T03:07:44;21.50;99.90
69747;DHT22;57018;50.278;19.134;2022-08-21T03:10:11;21.60;99.90
69747;DHT22;57018;50.278;19.134;2022-08-21T03:12:38;21.60;99.90
69747;DHT22;57018;50.278;19.134;2022-08-21T03:15:07;21.70;99.90
69747;DHT22;57018;50.278;19.134;2022-08-21T03:17:34;21.60;99.90
69747;DHT22;57018;50.278;19.134;2022-08-21T03:20:01;21.60;99.90
69747;DHT22;57018;50.278;19.134;2022-08-21T03:22:28;21.60;99.90
69747;DHT22;57018;50.278;19.134;2022-08-21T03:24:55;21.70;99.90
69747;DHT22;57018;50.278;19.134;2022-08-21T03:27:23;21.60;99.90
69747;DHT22;57018;50.278;19.134;2022-08-21T03:29:50;21.50;99.90
69747;DHT22;57018;50.278;19.134;2022-08-21T03:32:16;21.50;99.90
69747;DHT22;57018;50.278;19.134;2022-08-21T03:34:42;21.60;99.90
69747;DHT22;57018;50.278;19.134;2022-08-21T03:37:10;21.50;99.90
69747;DHT22;57018;50.278;19.134;2022-08-21T03:39:36;21.60;99.90
69747;DHT22;57018;50.278;19.134;2022-08-21T03:42:03;21.40;99.90
69747;DHT22;57018;50.278;19.134;2022-08-21T03:44:30;21.60;99.90
69747;DHT22;57018;50.278;19.134;2022-08-21T03:46:57;21.60;99.90
69747;DHT22;57018;50.278;19.134;2022-08-21T03:49:25;21.60;99.90
69747;DHT22;57018;50.278;19.134;2022-08-21T03:51:51;21.70;99.90
69747;DHT22;57018;50.278;19.134;2022-08-21T03:54:18;21.70;99.90
69747;DHT22;57018;50.278;19.134;2022-08-21T03:56:44;21.70;99.90
69747;DHT22;57018;50.278;19.134;2022-08-21T03:59:11;21.70;99.90
69747;DHT22;57018;50.278;19.134;2022-08-21T04:01:37;21.80;99.90
69747;DHT22;57018;50.278;19.134;2022-08-21T04:04:05;21.70;99.90
69747;DHT22;57018;50.278;19.134;2022-08-21T04:06:32;21.70;99.90
69747;DHT22;57018;50.278;19.134;2022-08-21T04:08:58;21.70;99.90
69747;DHT22;57018;50.278;19.134;2022-08-21T04:11:24;21.80;99.90
69747;DHT22;57018;50.278;19.134;2022-08-21T04:13:50;21.80;99.70
69747;DHT22;57018;50.278;19.134;2022-08-21T04:16:17;21.80;99.90
69747;DHT22;57018;50.278;19.134;2022-08-21T04:18:45;21.80;99.40
69747;DHT22;57018;50.278;19.134;2022-08-21T04:21:11;21.80;99.80
69747;DHT22;57018;50.278;19.134;2022-08-21T04:23:37;21.80;99.90
69747;DHT22;57018;50.278;19.134;2022-08-21T04:26:04;21.90;99.90
69747;DHT22;57018;50.278;19.134;2022-08-21T04:28:30;22.00;99.50
69747;DHT22;57018;50.278;19.134;2022-08-21T04:30:56;22.10;99.70
69747;DHT22;57018;50.278;19.134;2022-08-21T04:33:23;22.10;98.80
69747;DHT22;57018;50.278;19.134;2022-08-21T04:35:50;22.10;98.40
69747;DHT22;57018;50.278;19.134;2022-08-21T04:38:17;22.00;98.00
69747;DHT22;57018;50.278;19.134;2022-08-21T04:40:43;22.20;98.50
69747;DHT22;57018;50.278;19.134;2022-08-21T04:43:10;22.20;98.30
69747;DHT22;57018;50.278;19.134;2022-08-21T04:45:39;22.40;97.80
69747;DHT22;57018;50.278;19.134;2022-08-21T04:48:09;22.40;97.60
69747;DHT22;57018;50.278;19.134;2022-08-21T04:50:50;22.40;96.60
69747;DHT22;57018;50.278;19.134;2022-08-21T04:56:04;22.50;96.70
69747;DHT22;57018;50.278;19.134;2022-08-21T04:58:30;22.60;96.30
69747;DHT22;57018;50.278;19.134;2022-08-21T05:01:00;22.70;95.80
69747;DHT22;57018;50.278;19.134;2022-08-21T05:03:28;22.70;95.90
69747;DHT22;57018;50.278;19.134;2022-08-21T05:05:57;22.80;96.00
69747;DHT22;57018;50.278;19.134;2022-08-21T05:08:25;22.80;95.50
69747;DHT22;57018;50.278;19.134;2022-08-21T05:10:54;22.90;94.60
69747;DHT22;57018;50.278;19.134;2022-08-21T05:13:21;23.00;94.80
69747;DHT22;57018;50.278;19.134;2022-08-21T05:15:47;22.90;94.20
69747;DHT22;57018;50.278;19.134;2022-08-21T05:18:13;23.00;93.70
69747;DHT22;57018;50.278;19.134;2022-08-21T05:20:39;22.80;94.40
69747;DHT22;57018;50.278;19.134;2022-08-21T05:23:09;22.90;94.70
69747;DHT22;57018;50.278;19.134;2022-08-21T05:25:35;23.00;94.40
69747;DHT22;57018;50.278;19.134;2022-08-21T05:28:01;23.00;94.70
69747;DHT22;57018;50.278;19.134;2022-08-21T05:30:28;23.10;94.40
69747;DHT22;57018;50.278;19.134;2022-08-21T05:32:59;23.20;94.10
69747;DHT22;57018;50.278;19.134;2022-08-21T05:35:26;23.10;93.50
69747;DHT22;57018;50.278;19.134;2022-08-21T05:37:53;23.00;93.50
69747;DHT22;57018;50.278;19.134;2022-08-21T05:40:20;22.90;93.90
69747;DHT22;57018;50.278;19.134;2022-08-21T05:42:46;22.80;94.40
69747;DHT22;57018;50.278;19.134;2022-08-21T05:45:12;22.70;94.40
69747;DHT22;57018;50.278;19.134;2022-08-21T05:47:39;22.60;95.10
69747;DHT22;57018;50.278;19.134;2022-08-21T05:50:06;22.50;95.20
69747;DHT22;57018;50.278;19.134;2022-08-21T05:52:33;22.50;95.50
69747;DHT22;57018;50.278;19.134;2022-08-21T05:54:59;22.50;95.30
69747;DHT22;57018;50.278;19.134;2022-08-21T05:57:25;22.40;96.30
69747;DHT22;57018;50.278;19.134;2022-08-21T05:59:51;22.60;95.50
69747;DHT22;57018;50.278;19.134;2022-08-21T06:02:19;22.80;95.00
69747;DHT22;57018;50.278;19.134;2022-08-21T06:04:46;22.90;94.50
69747;DHT22;57018;50.278;19.134;2022-08-21T06:07:13;23.00;94.00
69747;DHT22;57018;50.278;19.134;2022-08-21T06:09:39;23.10;93.60
69747;DHT22;57018;50.278;19.134;2022-08-21T06:12:08;23.30;92.90
69747;DHT22;57018;50.278;19.134;2022-08-21T06:14:36;23.50;92.20
69747;DHT22;57018;50.278;19.134;2022-08-21T06:17:08;23.60;89.50
69747;DHT22;57018;50.278;19.134;2022-08-21T06:19:34;23.80;89.20
69747;DHT22;57018;50.278;19.134;2022-08-21T06:22:00;23.70;88.60
69747;DHT22;57018;50.278;19.134;2022-08-21T06:24:26;23.80;88.30
69747;DHT22;57018;50.278;19.134;2022-08-21T06:26:52;23.70;88.90
69747;DHT22;57018;50.278;19.134;2022-08-21T06:29:19;23.80;89.00
69747;DHT22;57018;50.278;19.134;2022-08-21T06:31:47;23.80;88.80
69747;DHT22;57018;50.278;19.134;2022-08-21T06:34:15;23.80;88.40
69747;DHT22;57018;50.278;19.134;2022-08-21T06:36:41;23.70;88.80
69747;DHT22;57018;50.278;19.134;2022-08-21T06:39:07;23.70;89.00
69747;DHT22;57018;50.278;19.134;2022-08-21T06:41:34;23.80;88.80
69747;DHT22;57018;50.278;19.134;2022-08-21T06:44:00;23.80;88.80
69747;DHT22;57018;50.278;19.134;2022-08-21T06:46:29;23.80;88.80
69747;DHT22;57018;50.278;19.134;2022-08-21T06:48:55;23.70;88.60
69747;DHT22;57018;50.278;19.134;2022-08-21T06:51:22;23.70;88.50
69747;DHT22;57018;50.278;19.134;2022-08-21T06:53:49;23.70;88.80
69747;DHT22;57018;50.278;19.134;2022-08-21T06:56:15;23.70;89.10
69747;DHT22;57018;50.278;19.134;2022-08-21T06:58:41;23.60;88.90
69747;DHT22;57018;50.278;19.134;2022-08-21T07:01:07;23.50;91.20
69747;DHT22;57018;50.278;19.134;2022-08-21T07:03:36;23.50;91.40
69747;DHT22;57018;50.278;19.134;2022-08-21T07:06:05;23.30;91.90
69747;DHT22;57018;50.278;19.134;2022-08-21T07:08:31;23.00;92.20
69747;DHT22;57018;50.278;19.134;2022-08-21T07:10:59;22.50;89.40
69747;DHT22;57018;50.278;19.134;2022-08-21T07:13:27;22.20;89.90
69747;DHT22;57018;50.278;19.134;2022-08-21T07:15:53;21.70;90.20
69747;DHT22;57018;50.278;19.134;2022-08-21T07:18:20;21.50;90.20
69747;DHT22;57018;50.278;19.134;2022-08-21T07:20:46;21.40;90.20
69747;DHT22;57018;50.278;19.134;2022-08-21T07:23:34;21.20;90.50
69747;DHT22;57018;50.278;19.134;2022-08-21T07:26:01;21.20;89.70
69747;DHT22;57018;50.278;19.134;2022-08-21T07:28:28;21.20;88.30
69747;DHT22;57018;50.278;19.134;2022-08-21T07:30:56;21.20;87.70
69747;DHT22;57018;50.278;19.134;2022-08-21T07:33:24;21.30;87.80
69747;DHT22;57018;50.278;19.134;2022-08-21T07:35:51;21.60;86.70
69747;DHT22;57018;50.278;19.134;2022-08-21T07:38:18;21.70;85.30
69747;DHT22;57018;50.278;19.134;2022-08-21T07:40:45;21.60;85.10
69747;DHT22;57018;50.278;19.134;2022-08-21T07:43:12;22.00;85.00
69747;DHT22;57018;50.278;19.134;2022-08-21T07:45:38;22.10;84.10
69747;DHT22;57018;50.278;19.134;2022-08-21T07:48:05;22.20;83.50
69747;DHT22;57018;50.278;19.134;2022-08-21T07:50:31;22.40;82.20
69747;DHT22;57018;50.278;19.134;2022-08-21T07:52:57;22.60;82.10
69747;DHT22;57018;50.278;19.134;2022-08-21T07:55:23;22.80;81.70
69747;DHT22;57018;50.278;19.134;2022-08-21T07:57:49;23.10;80.70
69747;DHT22;57018;50.278;19.134;2022-08-21T08:00:19;23.10;80.50
69747;DHT22;57018;50.278;19.134;2022-08-21T08:02:47;23.20;79.40
69747;DHT22;57018;50.278;19.134;2022-08-21T08:05:16;23.10;80.10
69747;DHT22;57018;50.278;19.134;2022-08-21T08:07:43;23.10;80.10
69747;DHT22;57018;50.278;19.134;2022-08-21T08:10:10;23.20;79.90
69747;DHT22;57018;50.278;19.134;2022-08-21T08:12:38;23.50;79.00
69747;DHT22;57018;50.278;19.134;2022-08-21T08:15:07;23.70;76.90
69747;DHT22;57018;50.278;19.134;2022-08-21T08:17:34;23.90;76.60
69747;DHT22;57018;50.278;19.134;2022-08-21T08:20:01;24.10;75.50
69747;DHT22;57018;50.278;19.134;2022-08-21T08:22:28;24.20;75.60
69747;DHT22;57018;50.278;19.134;2022-08-21T08:24:54;24.20;75.10
69747;DHT22;57018;50.278;19.134;2022-08-21T08:27:21;24.40;75.10
69747;DHT22;57018;50.278;19.134;2022-08-21T08:29:48;24.40;75.20
69747;DHT22;57018;50.278;19.134;2022-08-21T08:32:16;24.30;74.20
69747;DHT22;57018;50.278;19.134;2022-08-21T08:34:43;24.30;74.40
69747;DHT22;57018;50.278;19.134;2022-08-21T08:37:10;24.20;74.30
69747;DHT22;57018;50.278;19.134;2022-08-21T08:39:36;24.50;74.30
69747;DHT22;57018;50.278;19.134;2022-08-21T08:42:06;24.70;73.30
69747;DHT22;57018;50.278;19.134;2022-08-21T08:44:33;25.00;72.30
69747;DHT22;57018;50.278;19.134;2022-08-21T08:47:01;25.30;72.00
69747;DHT22;57018;50.278;19.134;2022-08-21T08:49:30;25.60;70.40
69747;DHT22;57018;50.278;19.134;2022-08-21T08:52:04;25.60;69.80
69747;DHT22;57018;50.278;19.134;2022-08-21T08:54:37;25.60;70.50
69747;DHT22;57018;50.278;19.134;2022-08-21T08:57:07;25.30;70.30
69747;DHT22;57018;50.278;19.134;2022-08-21T08:59:45;25.30;70.70
69747;DHT22;57018;50.278;19.134;2022-08-21T09:02:14;25.10;69.50
69747;DHT22;57018;50.278;19.134;2022-08-21T09:04:42;25.10;70.30
69747;DHT22;57018;50.278;19.134;2022-08-21T09:07:31;25.10;69.70
69747;DHT22;57018;50.278;19.134;2022-08-21T09:10:06;24.90;70.10
69747;DHT22;57018;50.278;19.134;2022-08-21T09:12:43;24.70;70.10
69747;DHT22;57018;50.278;19.134;2022-08-21T09:17:59;24.40;70.00
69747;DHT22;57018;50.278;19.134;2022-08-21T09:25:36;24.60;70.70
69747;DHT22;57018;50.278;19.134;2022-08-21T09:28:02;24.80;69.60
69747;DHT22;57018;50.278;19.134;2022-08-21T09:30:30;24.90;69.30
69747;DHT22;57018;50.278;19.134;2022-08-21T09:32:57;25.00;68.60
69747;DHT22;57018;50.278;19.134;2022-08-21T09:35:24;24.90;68.40
69747;DHT22;57018;50.278;19.134;2022-08-21T09:37:59;24.90;69.30
69747;DHT22;57018;50.278;19.134;2022-08-21T09:45:41;25.50;68.80
69747;DHT22;57018;50.278;19.134;2022-08-21T09:48:11;25.70;68.20
69747;DHT22;57018;50.278;19.134;2022-08-21T09:50:38;26.00;67.40
69747;DHT22;57018;50.278;19.134;2022-08-21T09:53:13;26.00;66.40
69747;DHT22;57018;50.278;19.134;2022-08-21T09:55:57;25.50;67.90
69747;DHT22;57018;50.278;19.134;2022-08-21T09:58:45;25.40;68.70
69747;DHT22;57018;50.278;19.134;2022-08-21T10:01:17;25.30;68.90
69747;DHT22;57018;50.278;19.134;2022-08-21T10:03:44;25.40;69.20
69747;DHT22;57018;50.278;19.134;2022-08-21T10:06:26;25.70;68.90
69747;DHT22;57018;50.278;19.134;2022-08-21T10:08:49;25.90;67.90
69747;DHT22;57018;50.278;19.134;2022-08-21T10:11:17;26.30;67.20
69747;DHT22;57018;50.278;19.134;2022-08-21T10:14:00;26.40;65.50
69747;DHT22;57018;50.278;19.134;2022-08-21T10:21:42;27.20;63.30
69747;DHT22;57018;50.278;19.134;2022-08-21T10:24:21;27.40;62.50
69747;DHT22;57018;50.278;19.134;2022-08-21T10:27:01;27.60;62.20
69747;DHT22;57018;50.278;19.134;2022-08-21T10:32:15;27.60;60.70
69747;DHT22;57018;50.278;19.134;2022-08-21T10:34:43;27.80;60.20
69747;DHT22;57018;50.278;19.134;2022-08-21T10:47:59;27.40;61.00
69747;DHT22;57018;50.278;19.134;2022-08-21T10:53:36;27.30;61.90
69747;DHT22;57018;50.278;19.134;2022-08-21T11:01:46;27.40;61.50
69747;DHT22;57018;50.278;19.134;2022-08-21T11:04:31;27.30;61.10
69747;DHT22;57018;50.278;19.134;2022-08-21T11:07:13;27.20;62.10
69747;DHT22;57018;50.278;19.134;2022-08-21T11:09:40;27.10;62.10
69747;DHT22;57018;50.278;19.134;2022-08-21T11:12:17;27.10;62.00
69747;DHT22;57018;50.278;19.134;2022-08-21T11:15:00;26.80;62.60
69747;DHT22;57018;50.278;19.134;2022-08-21T11:17:39;26.70;63.40
69747;DHT22;57018;50.278;19.134;2022-08-21T11:20:13;26.70;63.70
69747;DHT22;57018;50.278;19.134;2022-08-21T11:22:57;26.80;63.30
69747;DHT22;57018;50.278;19.134;2022-08-21T11:25:35;26.80;63.00
69747;DHT22;57018;50.278;19.134;2022-08-21T11:28:23;26.60;63.50
69747;DHT22;57018;50.278;19.134;2022-08-21T11:34:06;26.50;64.50
69747;DHT22;57018;50.278;19.134;2022-08-21T11:36:55;26.50;65.00
69747;DHT22;57018;50.278;19.134;2022-08-21T11:42:02;26.20;67.10
69747;DHT22;57018;50.278;19.134;2022-08-21T11:47:06;26.10;68.20
69747;DHT22;57018;50.278;19.134;2022-08-21T11:54:52;26.20;67.40
69747;DHT22;57018;50.278;19.134;2022-08-21T11:57:24;26.20;67.20
69747;DHT22;57018;50.278;19.134;2022-08-21T12:00:06;25.90;68.30
69747;DHT22;57018;50.278;19.134;2022-08-21T12:02:38;25.50;69.90
69747;DHT22;57018;50.278;19.134;2022-08-21T12:05:07;25.40;70.70
69747;DHT22;57018;50.278;19.134;2022-08-21T12:07:43;25.70;70.10
69747;DHT22;57018;50.278;19.134;2022-08-21T12:10:17;25.90;69.70
69747;DHT22;57018;50.278;19.134;2022-08-21T12:12:42;26.00;69.20
69747;DHT22;57018;50.278;19.134;2022-08-21T12:18:06;25.60;68.80
69747;DHT22;57018;50.278;19.134;2022-08-21T12:20:41;25.30;69.90
69747;DHT22;57018;50.278;19.134;2022-08-21T12:25:44;25.30;70.30
69747;DHT22;57018;50.278;19.134;2022-08-21T12:28:22;25.40;70.10
69747;DHT22;57018;50.278;19.134;2022-08-21T12:30:42;25.10;70.70
69747;DHT22;57018;50.278;19.134;2022-08-21T12:33:30;25.30;70.90
69747;DHT22;57018;50.278;19.134;2022-08-21T12:36:20;25.60;69.70
69747;DHT22;57018;50.278;19.134;2022-08-21T12:38:59;26.00;68.10
69747;DHT22;57018;50.278;19.134;2022-08-21T12:41:32;26.30;67.40
69747;DHT22;57018;50.278;19.134;2022-08-21T12:44:16;26.20;67.10
69747;DHT22;57018;50.278;19.134;2022-08-21T12:46:51;26.30;66.90
69747;DHT22;57018;50.278;19.134;2022-08-21T12:49:31;26.10;67.30
69747;DHT22;57018;50.278;19.134;2022-08-21T12:54:36;25.50;70.00
69747;DHT22;57018;50.278;19.134;2022-08-21T12:57:04;25.40;70.60
69747;DHT22;57018;50.278;19.134;2022-08-21T12:59:32;25.10;71.90
69747;DHT22;57018;50.278;19.134;2022-08-21T13:02:03;25.00;72.50
69747;DHT22;57018;50.278;19.134;2022-08-21T13:04:38;24.70;73.30
69747;DHT22;57018;50.278;19.134;2022-08-21T13:07:09;24.80;73.50
69747;DHT22;57018;50.278;19.134;2022-08-21T13:09:56;24.60;73.90
69747;DHT22;57018;50.278;19.134;2022-08-21T13:12:20;24.10;75.90
69747;DHT22;57018;50.278;19.134;2022-08-21T13:14:49;23.80;76.70
69747;DHT22;57018;50.278;19.134;2022-08-21T13:17:23;23.40;79.10
69747;DHT22;57018;50.278;19.134;2022-08-21T13:19:55;23.20;80.00
69747;DHT22;57018;50.278;19.134;2022-08-21T13:22:22;23.00;81.00
69747;DHT22;57018;50.278;19.134;2022-08-21T13:24:49;22.80;82.10
69747;DHT22;57018;50.278;19.134;2022-08-21T13:27:22;22.80;82.30
69747;DHT22;57018;50.278;19.134;2022-08-21T13:29:48;22.80;82.10
69747;DHT22;57018;50.278;19.134;2022-08-21T13:32:21;22.80;81.90
69747;DHT22;57018;50.278;19.134;2022-08-21T13:34:47;22.80;82.20
69747;DHT22;57018;50.278;19.134;2022-08-21T13:37:14;23.00;81.90
69747;DHT22;57018;50.278;19.134;2022-08-21T13:39:40;23.00;81.40
69747;DHT22;57018;50.278;19.134;2022-08-21T13:42:09;23.20;81.10
69747;DHT22;57018;50.278;19.134;2022-08-21T13:44:44;23.30;81.20
69747;DHT22;57018;50.278;19.134;2022-08-21T13:47:14;23.30;80.30
69747;DHT22;57018;50.278;19.134;2022-08-21T13:49:44;23.50;79.70
69747;DHT22;57018;50.278;19.134;2022-08-21T13:52:16;23.50;79.30
69747;DHT22;57018;50.278;19.134;2022-08-21T13:54:43;23.10;79.50
69747;DHT22;57018;50.278;19.134;2022-08-21T13:57:18;23.00;80.20
69747;DHT22;57018;50.278;19.134;2022-08-21T13:59:45;22.70;80.80
69747;DHT22;57018;50.278;19.134;2022-08-21T14:02:18;22.50;81.70
69747;DHT22;57018;50.278;19.134;2022-08-21T14:09:54;21.60;84.80
69747;DHT22;57018;50.278;19.134;2022-08-21T14:12:29;21.50;85.40
69747;DHT22;57018;50.278;19.134;2022-08-21T14:14:57;21.30;85.90
69747;DHT22;57018;50.278;19.134;2022-08-21T14:17:33;21.10;87.00
69747;DHT22;57018;50.278;19.134;2022-08-21T14:19:55;21.00;87.60
69747;DHT22;57018;50.278;19.134;2022-08-21T14:25:12;20.80;89.30
69747;DHT22;57018;50.278;19.134;2022-08-21T14:27:50;20.80;90.40
69747;DHT22;57018;50.278;19.134;2022-08-21T14:30:20;20.70;90.30
69747;DHT22;57018;50.278;19.134;2022-08-21T14:32:47;20.60;90.70
69747;DHT22;57018;50.278;19.134;2022-08-21T14:35:15;20.50;91.40
69747;DHT22;57018;50.278;19.134;2022-08-21T14:37:44;20.20;92.00
69747;DHT22;57018;50.278;19.134;2022-08-21T14:40:12;20.10;92.90
69747;DHT22;57018;50.278;19.134;2022-08-21T14:42:40;19.90;93.30
69747;DHT22;57018;50.278;19.134;2022-08-21T14:45:13;19.80;93.80
69747;DHT22;57018;50.278;19.134;2022-08-21T14:47:39;19.70;94.10
69747;DHT22;57018;50.278;19.134;2022-08-21T14:50:06;19.60;94.60
69747;DHT22;57018;50.278;19.134;2022-08-21T14:52:33;19.50;94.60
69747;DHT22;57018;50.278;19.134;2022-08-21T14:54:59;19.50;95.20
69747;DHT22;57018;50.278;19.134;2022-08-21T14:57:27;19.40;95.10
69747;DHT22;57018;50.278;19.134;2022-08-21T14:59:55;19.60;94.90
69747;DHT22;57018;50.278;19.134;2022-08-21T15:02:22;19.40;95.70
69747;DHT22;57018;50.278;19.134;2022-08-21T15:04:48;19.40;95.50
69747;DHT22;57018;50.278;19.134;2022-08-21T15:07:14;19.40;95.30
69747;DHT22;57018;50.278;19.134;2022-08-21T15:09:41;19.40;94.90
69747;DHT22;57018;50.278;19.134;2022-08-21T15:12:07;19.40;94.80
69747;DHT22;57018;50.278;19.134;2022-08-21T15:14:36;19.40;95.00
69747;DHT22;57018;50.278;19.134;2022-08-21T15:17:06;19.30;94.90
69747;DHT22;57018;50.278;19.134;2022-08-21T15:19:33;19.40;95.30
69747;DHT22;57018;50.278;19.134;2022-08-21T15:21:59;19.30;95.20
69747;DHT22;57018;50.278;19.134;2022-08-21T15:24:25;19.30;95.00
69747;DHT22;57018;50.278;19.134;2022-08-21T15:26:52;19.30;95.20
69747;DHT22;57018;50.278;19.134;2022-08-21T15:29:20;19.20;95.90
69747;DHT22;57018;50.278;19.134;2022-08-21T15:31:58;19.10;96.20
69747;DHT22;57018;50.278;19.134;2022-08-21T15:34:26;19.10;96.80
69747;DHT22;57018;50.278;19.134;2022-08-21T15:36:55;19.00;97.20
69747;DHT22;57018;50.278;19.134;2022-08-21T15:39:21;18.90;97.20
69747;DHT22;57018;50.278;19.134;2022-08-21T15:41:48;18.90;97.10
69747;DHT22;57018;50.278;19.134;2022-08-21T15:44:15;18.90;97.50
69747;DHT22;57018;50.278;19.134;2022-08-21T15:46:42;18.80;97.60
69747;DHT22;57018;50.278;19.134;2022-08-21T15:49:10;18.80;97.60
69747;DHT22;57018;50.278;19.134;2022-08-21T15:51:37;18.80;98.10
69747;DHT22;57018;50.278;19.134;2022-08-21T15:54:03;18.80;98.00
69747;DHT22;57018;50.278;19.134;2022-08-21T15:56:35;18.80;97.80
69747;DHT22;57018;50.278;19.134;2022-08-21T15:59:07;18.90;97.90
69747;DHT22;57018;50.278;19.134;2022-08-21T16:01:35;18.90;97.40
69747;DHT22;57018;50.278;19.134;2022-08-21T16:04:03;18.90;97.50
69747;DHT22;57018;50.278;19.134;2022-08-21T16:06:30;18.70;98.10
69747;DHT22;57018;50.278;19.134;2022-08-21T16:08:58;18.70;98.00
69747;DHT22;57018;50.278;19.134;2022-08-21T16:11:25;18.70;98.20
69747;DHT22;57018;50.278;19.134;2022-08-21T16:13:51;18.70;98.10
69747;DHT22;57018;50.278;19.134;2022-08-21T16:16:22;18.70;98.10
69747;DHT22;57018;50.278;19.134;2022-08-21T16:18:50;18.80;97.90
69747;DHT22;57018;50.278;19.134;2022-08-21T16:21:28;18.80;98.10
69747;DHT22;57018;50.278;19.134;2022-08-21T16:23:56;18.70;98.20
69747;DHT22;57018;50.278;19.134;2022-08-21T16:26:22;18.60;98.20
69747;DHT22;57018;50.278;19.134;2022-08-21T16:28:50;18.60;98.20
69747;DHT22;57018;50.278;19.134;2022-08-21T16:31:18;18.60;98.40
69747;DHT22;57018;50.278;19.134;2022-08-21T16:33:48;18.80;98.60
69747;DHT22;57018;50.278;19.134;2022-08-21T16:36:14;18.50;99.70
69747;DHT22;57018;50.278;19.134;2022-08-21T16:38:41;18.40;99.60
69747;DHT22;57018;50.278;19.134;2022-08-21T16:41:11;18.30;99.90